Details From KSTS - Charles M Schulz Sonoma Co
To KTRK - Truckee Tahoe
Flight Number -
Tags Generated
Created
Modified
Stats Distance 134 nm / 249 km
Max Altitude 0 ft / 0 m
Waypoints 2
Social Downloads 3
Likes 0
Share VATSIM

Download

Looking for another format? Having issues loading an existing format? Contact us
Advertisement - Login to hide

Notes

Generated

Route

KSTS KTRK

ID Type Via Altitude Latitude Longitude Leg Dist Tot Dist Heading (true) Name
O KSTS APT - 0 ft / 0 m 38.50316˚ -122.82096˚ - 0 nm - -
O KTRK APT - 0 ft / 0 m 39.31452˚ -120.13997˚ 134 nm 134 nm 68° / 70° -

Altitude Profile

Advertisement - Login to hide

KSTS

Details ICAO KSTS (STS)
Name Charles M. Schulz - Sonoma Co
Region United States
Timezone America/Los_Angeles (UTC-7.0)
Stats Elevation 128 ft / 39 m (AMSL)
Location 38.508979° -122.812922°
Runways 2
Magnetic Variation 13.682° E

METAR

KSTS 200953Z AUTO 17003KT 9SM CLR 08/07 A2991 RMK AO2 SLP122 T00830072

Decode

TAF

TAF KSTS 200526Z 2006/2106 19004KT P6SM FEW250 TEMPO 2008/2012 BKN010 OVC200 FM201200 02004KT P6SM SCT010 BKN250 FM201700 30005KT P6SM BKN250 FM202100 17009KT P6SM BKN250

Decode

Departure Runways

ID Width Length Bearing (true) Bearing (mag) Surface Threshold Offset Overrun Length
01 98 ft / 30 m 5,008 ft / 1,527 m 29.05° 15.37° Asphalt 0 ft / 0 m 0 ft / 0 m
14 151 ft / 46 m 5,122 ft / 1,561 m 157.28° 143.60° Asphalt 0 ft / 0 m 200 ft / 61 m
19 98 ft / 30 m 5,008 ft / 1,527 m 209.05° 195.37° Asphalt 0 ft / 0 m 0 ft / 0 m
32 151 ft / 46 m 5,122 ft / 1,561 m 337.28° 323.60° Asphalt 0 ft / 0 m 200 ft / 61 m

KTRK

Details ICAO KTRK (TKF)
Name Truckee Tahoe
Region United States
Timezone America/Los_Angeles (UTC-7.0)
Stats Elevation 5,900 ft / 1,798 m (AMSL)
Location 39.320042° -120.138942°
Runways 2
Magnetic Variation 13.395° E

METAR

KTRK 200955Z AUTO 00000KT 7SM SCT044 03/03 A3003 RMK AO2

Decode

TAF

KTRK 200531Z 2006/2106 VRB04KT P6SM SCT070 SCT180 FM200700 00000KT 1/2SM FG VV002 FM201700 VRB04KT P6SM FEW060 BKN180 FM202000 25010KT P6SM SCT060

Decode

Destination Runways

ID Width Length Bearing (true) Bearing (mag) Surface Threshold Offset Overrun Length
01 75 ft / 23 m 4,653 ft / 1,418 m 29.88° 16.48° Asphalt 0 ft / 0 m 0 ft / 0 m
10 100 ft / 30 m 6,990 ft / 2,131 m 120.08° 106.68° Asphalt 0 ft / 0 m 0 ft / 0 m
19 75 ft / 23 m 4,653 ft / 1,418 m 209.88° 196.48° Asphalt 115 ft / 35 m 0 ft / 0 m
28 100 ft / 30 m 6,990 ft / 2,131 m 300.09° 286.69° Asphalt 0 ft / 0 m 0 ft / 0 m